Cincinnati, Ohio
Traffic Map
Current Weather Conditions
Cincinnati, Ohio
Clear
Clear
10°
Feels Like: 10°
Wind Chill: 10° Ceiling: Unl
Heat Index: 10° Visibility: 10mi
Dew Point: Wind: 3mph
Humidity: 96% Direction: 60° (ENE)
Pressure: 30.15in Gusts: 0mph
Raw Report DataKLUK 190453Z AUTO 06003KT 10SM CLR 10/09 A3015 RMK AO2 SLP206 T01000094 402330078
Traffic Incident Summary
Active as of:
Severity:
Category:
InformationThere was an issue retrieving the traffic information for this location. Please try a different location or try again shortly.
Advertisements
Track Severe Weather on mobile